Time;durP1;ratioP1;P1;durP2;ratioP2;P2;SDS_P1;SDS_P2;PMS_P1;PMS_P2;Temp;Humidity;BMP_temperature;BMP_pressure;BME280_temperature;BME280_humidity;BME280_pressure;Samples;Min_cycle;Max_cycle;Signal;HPM_P1;HPM_P2
2022/04/11 00:02:00;;;;;;;10.37;7.57;;;;;;;4.96;100.00;94385.22;5094869;28;20444;-80
2022/04/11 00:04:28;;;;;;;7.43;6.67;;;;;;;4.94;100.00;94383.69;5094399;28;20448;-81
2022/04/11 00:06:55;;;;;;;7.37;6.77;;;;;;;4.84;100.00;94383.47;5094414;28;20922;-81
2022/04/11 00:09:22;;;;;;;7.50;5.83;;;;;;;4.88;100.00;94384.94;5094248;28;20480;-81
2022/04/11 00:11:48;;;;;;;8.30;7.40;;;;;;;4.90;100.00;94396.03;5094607;28;20949;-81
2022/04/11 00:14:17;;;;;;;8.17;7.13;;;;;;;4.97;100.00;94402.50;5094444;28;20944;-80
2022/04/11 00:16:44;;;;;;;11.80;7.27;;;;;;;4.88;100.00;94397.91;5094248;28;20451;-80
2022/04/11 00:19:12;;;;;;;10.93;7.20;;;;;;;4.92;100.00;94391.59;5094351;28;20424;-80
2022/04/11 00:21:39;;;;;;;10.67;7.83;;;;;;;4.93;100.00;94408.84;5094069;28;20444;-81
2022/04/11 00:24:06;;;;;;;7.73;6.57;;;;;;;5.00;100.00;94404.03;5042008;28;20428;-80
2022/04/11 00:26:33;;;;;;;7.50;6.80;;;;;;;5.07;100.00;94410.47;5094292;28;20446;-81
2022/04/11 00:29:00;;;;;;;7.67;6.33;;;;;;;5.08;99.77;94406.09;5093834;28;20479;-80
2022/04/11 00:31:29;;;;;;;7.83;7.03;;;;;;;5.18;100.00;94412.28;5093945;28;20497;-80
2022/04/11 00:33:56;;;;;;;7.77;7.00;;;;;;;5.23;99.89;94420.63;5093975;28;20792;-80
2022/04/11 00:36:23;;;;;;;7.33;6.30;;;;;;;5.32;99.15;94419.13;5093745;28;20838;-80
2022/04/11 00:38:50;;;;;;;10.80;6.80;;;;;;;5.29;98.03;94422.78;5094215;28;20479;-80
2022/04/11 00:41:17;;;;;;;7.50;6.63;;;;;;;5.27;96.74;94422.88;5094017;28;20920;-81
2022/04/11 00:43:44;;;;;;;8.10;5.27;;;;;;;5.24;97.39;94430.91;5093711;28;20444;-80
2022/04/11 00:46:11;;;;;;;6.70;6.00;;;;;;;5.24;97.02;94432.69;5093651;28;20436;-80
2022/04/11 00:48:40;;;;;;;7.93;5.63;;;;;;;5.24;97.04;94437.88;5093915;28;20479;-81
2022/04/11 00:51:10;;;;;;;7.70;6.63;;;;;;;5.23;96.04;94438.81;5093799;28;20505;-81
2022/04/11 00:53:40;;;;;;;6.73;6.00;;;;;;;5.38;96.22;94449.88;5094252;28;20800;-80
2022/04/11 00:56:09;;;;;;;6.40;5.60;;;;;;;5.44;95.57;94439.03;5094430;28;20427;-81
2022/04/11 00:58:37;;;;;;;8.60;6.40;;;;;;;5.49;94.07;94444.72;5093597;28;20443;-81
2022/04/11 01:01:05;;;;;;;6.77;6.07;;;;;;;5.58;94.66;94454.50;5093878;28;20803;-81
2022/04/11 01:03:33;;;;;;;10.37;7.60;;;;;;;5.60;94.78;94463.03;5093617;28;20456;-81
2022/04/11 01:06:01;;;;;;;10.93;7.60;;;;;;;5.62;94.32;94471.56;5057968;28;20489;-81
2022/04/11 01:08:29;;;;;;;6.93;6.33;;;;;;;5.70;92.79;94465.78;5093907;28;20479;-80
2022/04/11 01:10:56;;;;;;;6.23;5.63;;;;;;;5.72;93.02;94477.75;5093835;28;20451;-81
2022/04/11 01:13:23;;;;;;;7.10;6.40;;;;;;;5.75;92.49;94476.69;5094303;28;20440;-81
2022/04/11 01:15:54;;;;;;;6.60;6.00;;;;;;;5.74;92.77;94483.66;5093706;28;20439;-81
2022/04/11 01:18:21;;;;;;;13.40;5.83;;;;;;;5.74;91.66;94493.25;5093604;28;20443;-81
2022/04/11 01:20:48;;;;;;;6.20;5.17;;;;;;;5.70;92.47;94490.03;5093583;28;20444;-80
2022/04/11 01:23:17;;;;;;;6.20;5.60;;;;;;;5.74;92.31;94504.50;5093391;28;20443;-81
2022/04/11 01:25:49;;;;;;;6.30;5.70;;;;;;;5.79;90.62;94506.78;5093423;28;20447;-81
2022/04/11 01:28:16;;;;;;;8.80;5.30;;;;;;;5.67;90.57;94502.44;5093245;28;20448;-80
2022/04/11 01:30:43;;;;;;;7.70;6.07;;;;;;;5.59;89.23;94501.22;5093156;28;20447;-81
2022/04/11 01:33:18;;;;;;;7.40;6.00;;;;;;;5.62;90.53;94510.59;5093273;28;20436;-81
2022/04/11 01:35:45;;;;;;;5.97;5.30;;;;;;;5.63;90.46;94511.41;5074990;28;20443;-81
2022/04/11 01:38:12;;;;;;;8.93;6.47;;;;;;;5.57;90.00;94523.09;5045099;28;20491;-81
2022/04/11 01:40:48;;;;;;;5.20;4.70;;;;;;;5.67;89.28;94518.06;5096505;28;20435;-82
2022/04/11 01:43:14;;;;;;;7.13;5.43;;;;;;;5.69;88.60;94521.38;5093369;28;20526;-82
2022/04/11 01:45:41;;;;;;;6.27;5.70;;;;;;;5.73;88.88;94522.81;5092902;28;20450;-81
2022/04/11 01:48:09;;;;;;;6.10;5.00;;;;;;;5.71;89.80;94517.72;5092860;28;20942;-81
2022/04/11 01:50:35;;;;;;;7.90;5.10;;;;;;;5.75;89.00;94529.59;5093250;28;20475;-81
2022/04/11 01:53:05;;;;;;;6.73;5.57;;;;;;;5.82;89.89;94533.44;5093164;28;20889;-81
2022/04/11 01:55:32;;;;;;;5.77;5.17;;;;;;;5.81;89.27;94541.34;5093177;28;20873;-82
2022/04/11 01:58:00;;;;;;;6.33;5.80;;;;;;;5.79;88.14;94543.25;5074311;28;20813;-81
2022/04/11 02:00:27;;;;;;;6.20;5.60;;;;;;;5.82;89.24;94549.06;5092912;28;20440;-80
2022/04/11 02:02:54;;;;;;;5.23;4.73;;;;;;;5.74;88.00;94555.72;5093349;28;20448;-81
2022/04/11 02:05:21;;;;;;;6.17;5.20;;;;;;;5.82;88.39;94553.44;5093072;28;20456;-81
2022/04/11 02:07:48;;;;;;;6.00;5.40;;;;;;;5.90;88.86;94564.16;5074217;28;20452;-81
2022/04/11 02:10:15;;;;;;;4.93;4.43;;;;;;;5.87;86.65;94570.38;5092439;28;20488;-82
2022/04/11 02:12:42;;;;;;;5.43;4.93;;;;;;;5.75;86.86;94575.59;5093029;28;20440;-82
2022/04/11 02:15:11;;;;;;;6.43;5.53;;;;;;;5.67;87.62;94583.97;5094967;28;20961;-81
2022/04/11 02:17:38;;;;;;;6.27;5.67;;;;;;;5.68;87.35;94590.84;5096667;28;20446;-82
2022/04/11 02:20:06;;;;;;;5.60;5.10;;;;;;;5.72;88.04;94594.88;5096372;28;20448;-81
2022/04/11 02:22:44;;;;;;;8.63;5.60;;;;;;;5.73;88.29;94593.13;5096705;28;20926;-81
2022/04/11 02:25:11;;;;;;;6.37;5.50;;;;;;;5.77;88.20;94603.19;5096508;28;20852;-81
2022/04/11 02:27:38;;;;;;;5.07;4.57;;;;;;;5.75;88.18;94605.06;5077772;28;20452;-81
2022/04/11 02:30:07;;;;;;;5.53;5.03;;;;;;;5.84;88.56;94614.03;5096018;28;20479;-81
2022/04/11 02:32:35;;;;;;;8.27;6.20;;;;;;;5.85;88.21;94615.69;5096273;28;20786;-81
2022/04/11 02:35:02;;;;;;;6.07;5.57;;;;;;;5.84;88.12;94614.88;5096425;28;20525;-81
2022/04/11 02:37:29;;;;;;;5.20;4.70;;;;;;;5.89;88.50;94615.41;5095964;28;20454;-81
2022/04/11 02:39:56;;;;;;;9.03;5.60;;;;;;;5.94;88.33;94615.06;5096287;28;20451;-81
2022/04/11 02:42:23;;;;;;;5.63;5.23;;;;;;;6.04;88.57;94626.47;5096331;28;20467;-81
2022/04/11 02:44:50;;;;;;;6.73;6.00;;;;;;;6.16;88.76;94636.03;5096127;28;20474;-81
2022/04/11 02:47:18;;;;;;;7.00;5.30;;;;;;;6.21;87.54;94633.94;5096188;28;20446;-81
2022/04/11 02:49:46;;;;;;;7.40;5.60;;;;;;;6.19;88.21;94635.81;5096260;28;20510;-81
2022/04/11 02:52:14;;;;;;;6.17;5.63;;;;;;;6.15;87.29;94639.59;5096333;28;20797;-81
2022/04/11 02:54:41;;;;;;;6.50;5.47;;;;;;;6.20;88.69;94645.28;5096259;28;20450;-81
2022/04/11 02:57:09;;;;;;;6.73;4.60;;;;;;;6.12;87.66;94636.38;5095764;28;20877;-81
2022/04/11 02:59:36;;;;;;;4.50;3.83;;;;;;;5.86;87.55;94640.78;5043688;28;20436;-81
2022/04/11 03:02:04;;;;;;;5.17;4.23;;;;;;;5.83;89.12;94659.22;5095701;28;20445;-82
2022/04/11 03:04:31;;;;;;;5.27;4.87;;;;;;;5.74;89.35;94657.25;5095961;28;20436;-81
2022/04/11 03:06:59;;;;;;;4.67;3.87;;;;;;;5.66;89.79;94656.97;5095925;28;20447;-82
2022/04/11 03:09:26;;;;;;;10.73;5.37;;;;;;;5.67;89.27;94656.03;5095367;28;20554;-81
2022/04/11 03:11:53;;;;;;;4.97;4.47;;;;;;;5.72;90.28;94661.72;5095612;28;20440;-81
2022/04/11 03:14:20;;;;;;;4.80;4.40;;;;;;;5.65;90.01;94658.72;5043609;28;20443;-82
2022/04/11 03:16:47;;;;;;;7.77;5.70;;;;;;;5.59;89.59;94673.00;5095864;28;20448;-81
2022/04/11 03:19:14;;;;;;;6.00;5.40;;;;;;;5.63;90.04;94678.00;5095577;28;20527;-81
2022/04/11 03:21:41;;;;;;;5.37;4.60;;;;;;;5.65;90.64;94671.75;5095815;28;20451;-81
2022/04/11 03:24:09;;;;;;;4.80;4.30;;;;;;;5.82;89.91;94681.00;5095328;28;20448;-81
2022/04/11 03:26:36;;;;;;;4.83;4.37;;;;;;;5.95;90.90;94684.44;5095506;28;20455;-81
2022/04/11 03:29:03;;;;;;;5.10;4.70;;;;;;;6.03;90.53;94689.94;5060081;28;20487;-81
2022/04/11 03:31:31;;;;;;;8.07;7.40;;;;;;;6.12;89.66;94686.69;5095522;28;20439;-81
2022/04/11 03:33:58;;;;;;;8.80;5.10;;;;;;;6.12;89.91;94678.88;5095371;28;20447;-81
2022/04/11 03:36:25;;;;;;;5.50;4.50;;;;;;;6.14;88.41;94703.03;5094979;28;20444;-82
2022/04/11 03:38:52;;;;;;;5.93;5.43;;;;;;;6.15;89.06;94702.09;5095400;28;20799;-81
2022/04/11 03:41:21;;;;;;;5.60;5.10;;;;;;;6.21;89.24;94713.88;5094680;28;20436;-81
2022/04/11 03:43:47;;;;;;;7.67;5.63;;;;;;;6.29;89.23;94718.53;5095000;28;20878;-81
2022/04/11 03:46:14;;;;;;;10.27;5.40;;;;;;;6.30;88.23;94720.19;5095128;28;20435;-82
2022/04/11 03:48:41;;;;;;;16.67;5.47;;;;;;;6.24;88.82;94718.84;5094754;28;20950;-81
2022/04/11 03:51:09;;;;;;;6.53;5.93;;;;;;;6.21;88.78;94724.28;5094949;28;20480;-82
2022/04/11 03:53:36;;;;;;;6.57;5.97;;;;;;;6.18;89.24;94720.13;5095247;28;20451;-81
2022/04/11 03:56:04;;;;;;;5.77;5.27;;;;;;;6.20;89.00;94726.06;5042866;28;20445;-81
2022/04/11 03:58:33;;;;;;;5.67;5.20;;;;;;;6.21;88.89;94727.72;5095120;28;20448;-81
2022/04/11 04:01:00;;;;;;;5.63;5.10;;;;;;;6.20;89.04;94728.66;5094692;28;20448;-81
2022/04/11 04:03:27;;;;;;;6.00;5.37;;;;;;;6.23;89.64;94730.22;5094527;28;20444;-82
2022/04/11 04:05:54;;;;;;;5.87;5.23;;;;;;;6.16;89.14;94727.22;5094576;28;20485;-82
2022/04/11 04:08:21;;;;;;;9.23;5.80;;;;;;;6.07;88.56;94725.25;5094493;28;20444;-81
2022/04/11 04:10:48;;;;;;;8.30;5.73;;;;;;;6.18;89.21;94730.53;5094527;28;20989;-81
2022/04/11 04:13:16;;;;;;;5.77;5.30;;;;;;;6.16;88.04;94731.59;5093932;28;20456;-81
2022/04/11 04:15:46;;;;;;;7.73;6.93;;;;;;;6.26;87.90;94742.19;5043510;28;20474;-81
2022/04/11 04:18:13;;;;;;;8.70;7.17;;;;;;;6.30;87.93;94747.06;5094548;28;20938;-81
2022/04/11 04:20:40;;;;;;;6.67;6.07;;;;;;;6.33;88.14;94746.84;5042491;28;20447;-81
2022/04/11 04:23:12;;;;;;;9.43;5.50;;;;;;;6.35;87.46;94744.13;5094396;28;20452;-81
2022/04/11 04:25:39;;;;;;;9.63;6.30;;;;;;;6.34;86.00;94752.91;5094115;28;20483;-81
2022/04/11 04:28:07;;;;;;;7.20;6.30;;;;;;;6.26;85.54;94750.00;5094077;28;20519;-82
2022/04/11 04:30:34;;;;;;;8.83;5.70;;;;;;;6.09;83.91;94769.44;5093821;28;20487;-80
2022/04/11 04:33:02;;;;;;;8.80;5.97;;;;;;;6.04;84.35;94766.28;5094146;28;20454;-80
2022/04/11 04:35:29;;;;;;;6.30;5.40;;;;;;;5.95;85.23;94757.34;5094384;28;20436;-81
2022/04/11 04:37:58;;;;;;;7.43;5.63;;;;;;;5.97;84.04;94775.47;5093217;28;20468;-81
2022/04/11 04:40:25;;;;;;;7.13;6.00;;;;;;;5.93;84.07;94774.84;5093664;28;20960;-81
2022/04/11 04:42:52;;;;;;;10.00;6.20;;;;;;;5.90;83.70;94780.28;5093694;28;20471;-82
2022/04/11 04:45:20;;;;;;;9.17;6.50;;;;;;;5.87;83.97;94788.25;5093927;28;20463;-80
2022/04/11 04:47:47;;;;;;;11.43;5.87;;;;;;;5.89;84.14;94799.41;5094064;28;20527;-82
2022/04/11 04:50:15;;;;;;;7.20;6.37;;;;;;;5.90;84.02;94809.75;5074930;28;20472;-81
2022/04/11 04:52:42;;;;;;;7.77;6.90;;;;;;;5.95;82.87;94804.22;5042130;28;20440;-80
2022/04/11 04:55:10;;;;;;;12.30;6.30;;;;;;;5.95;82.67;94811.22;5041899;28;20451;-81
2022/04/11 04:57:37;;;;;;;9.00;6.63;;;;;;;5.90;83.44;94814.13;5093491;28;20448;-81
2022/04/11 05:00:05;;;;;;;9.23;6.40;;;;;;;5.94;83.68;94818.19;5093511;28;20448;-81
2022/04/11 05:02:36;;;;;;;7.50;6.00;;;;;;;5.83;83.20;94825.88;5041554;28;20433;-81
2022/04/11 05:05:06;;;;;;;6.40;5.27;;;;;;;5.73;83.13;94830.84;5093891;28;20440;-81
2022/04/11 05:07:34;;;;;;;14.03;6.40;;;;;;;5.79;83.12;94834.81;5094166;28;20455;-81
2022/04/11 05:10:02;;;;;;;9.67;6.10;;;;;;;5.68;82.83;94827.72;5106121;28;20486;-81
2022/04/11 05:12:29;;;;;;;7.57;6.43;;;;;;;5.63;82.73;94823.75;5106067;28;20443;-81
2022/04/11 05:14:56;;;;;;;16.70;7.37;;;;;;;5.70;82.78;94830.22;5074719;28;20436;-81
2022/04/11 05:17:24;;;;;;;15.20;5.83;;;;;;;5.77;83.15;94839.28;5093667;28;20449;-81
2022/04/11 05:19:50;;;;;;;7.30;6.53;;;;;;;5.73;82.94;94841.25;5093743;28;20455;-81
2022/04/11 05:22:17;;;;;;;8.13;6.43;;;;;;;5.74;82.91;94842.91;5093808;28;20451;-81
2022/04/11 05:24:45;;;;;;;11.00;6.30;;;;;;;5.81;83.50;94835.56;5093621;28;20440;-81
2022/04/11 05:27:12;;;;;;;7.73;6.93;;;;;;;5.79;82.19;94850.44;5093436;28;20448;-81
2022/04/11 05:29:39;;;;;;;10.30;7.27;;;;;;;5.83;81.62;94849.31;5093357;28;20440;-80
2022/04/11 05:32:07;;;;;;;11.20;6.37;;;;;;;5.79;82.74;94850.44;5093033;28;20444;-81
2022/04/11 05:34:34;;;;;;;12.93;9.10;;;;;;;5.86;82.93;94854.31;5092875;28;20443;-80
2022/04/11 05:37:01;;;;;;;12.23;9.00;;;;;;;5.86;82.01;94849.94;5092777;28;20443;-81
2022/04/11 05:39:30;;;;;;;10.30;7.00;;;;;;;5.84;81.87;94854.41;5055365;28;20507;-81
2022/04/11 05:41:58;;;;;;;9.73;8.73;;;;;;;5.93;82.54;94860.78;5093113;28;20440;-81
2022/04/11 05:44:25;;;;;;;12.33;7.57;;;;;;;5.84;81.17;94848.38;5093399;28;20498;-82
2022/04/11 05:46:52;;;;;;;14.33;7.60;;;;;;;5.93;82.49;94862.56;5095298;28;20803;-81
2022/04/11 05:49:20;;;;;;;8.53;6.90;;;;;;;5.86;81.04;94867.31;5096293;28;20926;-81
2022/04/11 05:51:47;;;;;;;8.63;7.40;;;;;;;5.78;81.55;94869.56;5098820;28;20475;-81
2022/04/11 05:54:14;;;;;;;11.43;9.43;;;;;;;5.79;80.99;94861.69;5096683;28;20447;-80
2022/04/11 05:56:41;;;;;;;12.80;10.03;;;;;;;5.78;81.96;94872.19;5096987;28;20444;-81
2022/04/11 05:59:10;;;;;;;12.50;9.10;;;;;;;5.76;81.32;94871.44;5097049;28;20937;-81
2022/04/11 06:01:37;;;;;;;9.80;7.87;;;;;;;5.83;82.76;94872.75;5096808;28;20448;-81
2022/04/11 06:04:05;;;;;;;13.33;8.03;;;;;;;5.89;81.82;94872.31;5096655;28;20526;-81
2022/04/11 06:06:31;;;;;;;13.37;8.57;;;;;;;5.98;80.83;94879.53;5097203;28;20440;-82
2022/04/11 06:08:59;;;;;;;11.83;7.10;;;;;;;6.01;80.27;94876.72;5096619;28;20440;-80
2022/04/11 06:11:26;;;;;;;8.70;7.37;;;;;;;6.03;80.17;94877.47;5097372;28;20502;-80
2022/04/11 06:13:52;;;;;;;15.17;8.00;;;;;;;5.97;78.89;94875.28;5096978;28;20937;-82
2022/04/11 06:16:21;;;;;;;9.87;7.20;;;;;;;6.01;79.99;94873.28;5096816;28;20818;-81
2022/04/11 06:18:47;;;;;;;12.07;7.27;;;;;;;6.02;78.55;94881.00;5044604;28;20443;-81
2022/04/11 06:21:14;;;;;;;9.40;7.00;;;;;;;6.07;78.40;94878.09;5096691;28;20451;-81
2022/04/11 06:23:41;;;;;;;14.03;8.60;;;;;;;6.11;79.37;94879.56;5096468;28;20452;-82
2022/04/11 06:26:08;;;;;;;7.33;6.53;;;;;;;6.08;78.34;94877.19;5096389;28;20460;-81
2022/04/11 06:28:35;;;;;;;8.77;7.23;;;;;;;5.91;77.45;94883.50;5097045;28;20443;-80
2022/04/11 06:31:02;;;;;;;7.90;6.00;;;;;;;6.01;77.95;94881.09;5096288;28;20480;-81
2022/04/11 06:33:30;;;;;;;9.07;6.53;;;;;;;6.01;78.49;94879.34;5096196;28;20444;-81
2022/04/11 06:35:57;;;;;;;8.70;7.77;;;;;;;6.06;79.01;94889.44;5096097;28;20800;-80
2022/04/11 06:38:24;;;;;;;8.43;7.60;;;;;;;5.98;79.29;94879.53;5096121;28;20479;-81
2022/04/11 06:40:51;;;;;;;7.80;7.00;;;;;;;6.02;78.45;94885.38;5044031;28;20788;-81
2022/04/11 06:43:17;;;;;;;9.27;7.07;;;;;;;6.09;79.49;94891.88;5096639;28;20944;-81
2022/04/11 06:45:44;;;;;;;9.87;8.00;;;;;;;6.28;80.20;94892.28;5097996;28;20448;-81
2022/04/11 06:48:11;;;;;;;8.33;7.00;;;;;;;6.48;80.67;94886.53;5096356;28;20436;-81
2022/04/11 06:50:39;;;;;;;11.83;7.47;;;;;;;6.68;78.23;94897.38;5095973;28;20483;-82
2022/04/11 06:53:06;;;;;;;11.00;8.90;;;;;;;6.79;76.63;94894.84;5096578;28;20450;-82
2022/04/11 06:55:33;;;;;;;15.07;9.27;;;;;;;6.92;77.15;94902.63;5096495;28;20448;-81
2022/04/11 06:58:01;;;;;;;17.03;11.07;;;;;;;7.03;76.39;94907.94;5095741;28;20448;-81
2022/04/11 07:00:28;;;;;;;13.83;12.10;;;;;;;7.01;74.58;94905.44;5095296;28;20536;-81
2022/04/11 07:02:55;;;;;;;10.63;7.53;;;;;;;7.00;74.15;94910.75;5095643;28;20454;-82
2022/04/11 07:05:22;;;;;;;14.90;8.90;;;;;;;7.07;75.06;94920.66;5096168;28;20448;-81
2022/04/11 07:07:50;;;;;;;8.03;6.77;;;;;;;7.12;73.93;94909.88;5095416;28;20436;-82
2022/04/11 07:10:17;;;;;;;10.47;7.43;;;;;;;7.28;73.66;94915.69;5095632;28;20870;-82
2022/04/11 07:12:44;;;;;;;9.57;7.63;;;;;;;7.59;72.50;94921.31;5076954;28;20442;-82
2022/04/11 07:15:11;;;;;;;13.93;8.20;;;;;;;7.90;71.00;94920.75;5095562;28;20809;-81
2022/04/11 07:17:38;;;;;;;17.23;10.03;;;;;;;8.40;70.80;94925.78;5043507;28;20450;-82
2022/04/11 07:20:06;;;;;;;8.90;8.10;;;;;;;8.77;69.13;94924.63;5095595;28;20477;-81
2022/04/11 07:22:33;;;;;;;9.73;7.73;;;;;;;9.10;67.96;94933.44;5095586;28;20450;-81
2022/04/11 07:25:03;;;;;;;15.23;8.10;;;;;;;9.33;66.52;94929.84;5059887;28;20455;-81
2022/04/11 07:27:29;;;;;;;12.13;7.67;;;;;;;9.75;63.54;94928.19;5095637;28;20440;-80
2022/04/11 07:29:56;;;;;;;10.57;7.23;;;;;;;10.01;63.48;94930.47;5095261;28;20819;-81
2022/04/11 07:32:23;;;;;;;10.07;6.90;;;;;;;10.30;61.84;94942.03;5094986;28;20480;-82
2022/04/11 07:34:50;;;;;;;7.53;6.43;;;;;;;10.55;61.54;94936.41;5095079;28;20440;-82
2022/04/11 07:37:17;;;;;;;11.17;7.60;;;;;;;10.69;59.85;94947.53;5095035;28;20456;-81
2022/04/11 07:39:44;;;;;;;23.10;12.50;;;;;;;10.83;59.04;94955.09;5095036;28;20454;-81
2022/04/11 07:42:12;;;;;;;15.30;8.50;;;;;;;10.84;58.27;94951.50;5095036;28;20949;-81
2022/04/11 07:44:39;;;;;;;12.50;7.30;;;;;;;10.69;57.35;94944.91;5095020;28;20436;-81
2022/04/11 07:47:08;;;;;;;7.57;6.77;;;;;;;10.72;60.39;94942.06;5095397;28;20440;-82
2022/04/11 07:49:35;;;;;;;8.97;7.40;;;;;;;11.04;60.29;94945.41;5076923;28;20420;-81
2022/04/11 07:52:02;;;;;;;12.87;8.13;;;;;;;11.26;57.99;94940.91;5095172;28;20483;-82
2022/04/11 07:54:29;;;;;;;9.03;8.13;;;;;;;11.42;57.29;94949.94;5095291;28;20432;-82
2022/04/11 07:56:56;;;;;;;9.83;7.23;;;;;;;11.49;57.16;94955.50;5095178;28;20455;-81
2022/04/11 07:59:24;;;;;;;8.10;7.00;;;;;;;11.45;55.20;94956.72;5095361;28;20444;-81
2022/04/11 08:01:52;;;;;;;10.40;6.47;;;;;;;11.55;54.88;94956.75;5076607;28;20539;-81
2022/04/11 08:04:19;;;;;;;7.07;6.47;;;;;;;11.33;55.76;94963.06;5094998;28;20539;-80
2022/04/11 08:06:46;;;;;;;8.70;7.40;;;;;;;11.26;55.93;94967.16;5094618;28;20780;-81
2022/04/11 08:09:13;;;;;;;11.07;6.77;;;;;;;11.36;56.51;94968.88;5094627;28;20806;-81
2022/04/11 08:11:40;;;;;;;8.40;6.67;;;;;;;11.41;53.94;94966.69;5093938;28;20479;-82
2022/04/11 08:14:07;;;;;;;15.37;6.13;;;;;;;11.57;54.70;94966.19;5094449;28;20447;-82
2022/04/11 08:16:35;;;;;;;13.67;7.40;;;;;;;11.38;53.72;94964.31;5094847;28;20805;-82
2022/04/11 08:19:02;;;;;;;7.37;6.03;;;;;;;11.27;54.08;94977.53;5094783;28;20447;-82
2022/04/11 08:21:29;;;;;;;17.80;9.53;;;;;;;11.25;54.37;94965.50;5095026;28;20881;-79
2022/04/11 08:23:56;;;;;;;12.70;8.30;;;;;;;11.34;55.54;94978.69;5094842;28;20546;-82
2022/04/11 08:26:23;;;;;;;8.60;6.43;;;;;;;11.23;55.20;94989.28;5094672;28;20454;-81
2022/04/11 08:28:50;;;;;;;7.80;7.00;;;;;;;10.96;56.09;94981.13;5042529;28;20802;-81
2022/04/11 08:31:17;;;;;;;7.67;6.87;;;;;;;10.80;54.18;94997.34;5094780;28;21017;-81
2022/04/11 08:33:45;;;;;;;7.80;6.70;;;;;;;10.74;53.81;95003.94;5095104;28;20431;-81
2022/04/11 08:36:12;;;;;;;6.00;5.20;;;;;;;10.83;52.87;95008.41;5095026;28;20440;-81
2022/04/11 08:38:39;;;;;;;7.23;5.83;;;;;;;10.79;53.90;94998.31;5042952;28;20482;-81
2022/04/11 08:41:16;;;;;;;10.73;6.00;;;;;;;11.07;53.28;94994.19;5097678;28;20450;-80
2022/04/11 08:43:43;;;;;;;6.70;5.70;;;;;;;11.28;53.28;94996.78;5096879;28;20455;-81
2022/04/11 08:46:12;;;;;;;9.90;7.10;;;;;;;11.64;53.24;94998.84;5093972;28;20458;-82
2022/04/11 08:48:38;;;;;;;9.43;6.07;;;;;;;11.74;52.83;94999.69;5094269;28;20444;-82
2022/04/11 08:51:07;;;;;;;16.90;7.40;;;;;;;11.68;53.59;94992.34;5093932;28;20989;-80
2022/04/11 08:53:34;;;;;;;7.83;6.70;;;;;;;11.48;53.52;94995.88;5094112;28;20444;-81
2022/04/11 08:56:01;;;;;;;11.60;6.90;;;;;;;11.57;54.62;94986.38;5058498;28;20444;-82
2022/04/11 08:58:30;;;;;;;9.70;7.33;;;;;;;11.34;54.94;94991.81;5075189;28;20444;-82
2022/04/11 09:00:57;;;;;;;7.17;6.40;;;;;;;11.07;57.84;94994.19;5093490;28;20934;-81
2022/04/11 09:03:24;;;;;;;9.13;6.97;;;;;;;10.90;56.08;95003.47;5093652;28;20467;-81
2022/04/11 09:06:04;;;;;;;14.87;7.67;;;;;;;10.53;55.42;94995.22;5093521;28;20444;-81
2022/04/11 09:08:39;;;;;;;7.50;6.70;;;;;;;10.35;56.05;94997.56;5093555;28;20447;-82
2022/04/11 09:11:07;;;;;;;9.50;6.60;;;;;;;10.20;58.29;94999.69;5093108;28;20490;-81
2022/04/11 09:13:47;;;;;;;10.60;6.90;;;;;;;10.03;58.58;95002.78;5058576;28;20448;-81
2022/04/11 09:16:14;;;;;;;8.30;6.20;;;;;;;9.86;57.54;95001.53;5093479;28;20459;-82
2022/04/11 09:18:47;;;;;;;7.63;6.23;;;;;;;9.60;57.32;95010.66;5093309;28;20450;-81
2022/04/11 09:21:14;;;;;;;11.20;6.90;;;;;;;9.50;58.32;95014.91;5093508;28;20446;-80
2022/04/11 09:23:42;;;;;;;10.00;7.30;;;;;;;9.36;58.44;95015.19;5093554;28;20444;-82
2022/04/11 09:26:20;;;;;;;12.30;6.70;;;;;;;9.26;59.20;95013.28;5093710;28;20455;-81
2022/04/11 09:29:03;;;;;;;10.20;6.60;;;;;;;9.21;59.25;95015.41;5093642;28;20439;-81
2022/04/11 09:31:30;;;;;;;12.10;7.80;;;;;;;9.11;59.54;95011.84;5041181;28;20475;-81
2022/04/11 09:33:57;;;;;;;9.37;8.40;;;;;;;9.09;59.58;95005.91;5093215;28;20440;-81
2022/04/11 09:36:24;;;;;;;15.10;10.43;;;;;;;9.06;59.48;95011.38;5092968;28;20447;-83
2022/04/11 09:38:59;;;;;;;13.37;10.07;;;;;;;9.08;60.43;95017.31;5092910;28;20471;-81
2022/04/11 09:41:30;;;;;;;9.70;8.73;;;;;;;9.15;60.17;95012.44;5092968;28;20451;-82
2022/04/11 09:43:57;;;;;;;17.83;9.30;;;;;;;9.20;58.97;95012.91;5093148;28;20493;-81
2022/04/11 09:46:24;;;;;;;15.37;8.87;;;;;;;9.15;59.15;95010.66;5093895;28;20443;-81
2022/04/11 09:48:54;;;;;;;10.83;9.13;;;;;;;9.23;59.85;94994.34;5093353;28;20444;-80
2022/04/11 09:51:21;;;;;;;10.33;7.77;;;;;;;9.14;59.62;95008.97;5093466;28;20479;-81
2022/04/11 09:53:48;;;;;;;6.67;6.07;;;;;;;9.07;59.21;95007.78;5093245;28;20448;-80
2022/04/11 09:56:18;;;;;;;18.73;9.13;;;;;;;9.11;58.39;95017.06;5093368;28;20810;-81
2022/04/11 09:58:45;;;;;;;6.70;6.00;;;;;;;9.12;58.05;95005.66;5093243;28;20942;-82
2022/04/11 10:01:14;;;;;;;11.80;6.73;;;;;;;9.22;58.35;95001.34;5093485;28;20532;-82
2022/04/11 10:03:42;;;;;;;6.77;6.17;;;;;;;9.27;57.02;95006.25;5093155;28;20482;-82
2022/04/11 10:06:12;;;;;;;7.27;6.53;;;;;;;9.40;56.67;95000.88;5093405;28;20455;-82
2022/04/11 10:08:39;;;;;;;17.77;6.50;;;;;;;9.40;55.76;94995.66;5092868;28;20427;-82
2022/04/11 10:11:07;;;;;;;7.70;6.43;;;;;;;9.41;55.73;95002.56;5092976;28;20444;-82
2022/04/11 10:13:37;;;;;;;6.80;5.80;;;;;;;9.46;55.58;95000.41;5093217;28;20450;-82
2022/04/11 10:16:06;;;;;;;6.33;5.77;;;;;;;9.43;54.89;94988.38;5092925;28;20478;-81
2022/04/11 10:18:34;;;;;;;13.57;6.90;;;;;;;9.45;55.24;94991.72;5092682;28;20447;-81
2022/04/11 10:21:04;;;;;;;9.57;7.77;;;;;;;9.46;54.66;94982.91;5092747;28;20448;-81
2022/04/11 10:23:34;;;;;;;7.30;6.73;;;;;;;9.45;56.89;94985.66;5092874;28;20440;-82
2022/04/11 10:26:04;;;;;;;10.57;6.70;;;;;;;9.49;55.42;94987.06;5092699;28;20436;-82
2022/04/11 10:28:31;;;;;;;14.33;8.23;;;;;;;9.42;55.86;94986.72;5040903;28;20440;-82
2022/04/11 10:31:09;;;;;;;9.00;6.60;;;;;;;9.45;55.24;94996.94;5092423;28;20456;-81
2022/04/11 10:33:47;;;;;;;9.40;7.23;;;;;;;9.40;56.00;94993.03;5092324;28;20447;-82
2022/04/11 10:36:33;;;;;;;8.03;6.50;;;;;;;9.45;56.13;94996.13;5094698;28;20987;-81
2022/04/11 10:39:26;;;;;;;7.47;6.17;;;;;;;9.68;56.79;95000.38;5033310;28;21031;-81
2022/04/11 10:42:12;;;;;;;9.60;7.30;;;;;;;9.85;55.39;94999.03;5033744;28;20454;-81
2022/04/11 10:44:41;;;;;;;7.90;7.20;;;;;;;10.04;55.65;94987.88;5033573;28;20446;-82
2022/04/11 10:47:26;;;;;;;7.80;6.60;;;;;;;10.28;54.98;94999.03;5033691;28;20485;-82
2022/04/11 10:50:38;;;;;;;6.53;5.83;;;;;;;10.14;54.65;94994.06;5033808;28;20577;-81
2022/04/11 10:53:13;;;;;;;8.30;6.60;;;;;;;10.27;55.03;94991.31;4974706;28;20488;-82
2022/04/11 10:56:03;;;;;;;11.17;7.30;;;;;;;10.20;52.80;94998.81;4974639;28;20441;-82
2022/04/11 10:58:45;;;;;;;11.93;7.83;;;;;;;10.24;53.24;94998.47;4898563;29;20465;-82
2022/04/11 11:01:12;;;;;;;7.80;7.00;;;;;;;10.03;52.99;95002.78;4867155;29;20494;-82
2022/04/11 11:03:57;;;;;;;9.50;8.50;;;;;;;9.99;54.03;95005.78;4898352;29;21005;-82
2022/04/11 11:06:24;;;;;;;7.77;7.17;;;;;;;9.90;55.02;94997.72;4898244;29;20453;-82
2022/04/11 11:08:51;;;;;;;8.33;7.20;;;;;;;9.87;54.36;94982.25;4898195;29;20453;-82
2022/04/11 11:11:28;;;;;;;8.03;6.87;;;;;;;9.77;53.45;94994.41;4898173;29;20963;-83
2022/04/11 11:13:58;;;;;;;7.73;5.80;;;;;;;9.83;52.83;95000.94;4898200;29;20952;-82
2022/04/11 11:16:35;;;;;;;17.27;6.03;;;;;;;9.91;53.48;95003.78;4941242;28;20944;-82
2022/04/11 11:19:15;;;;;;;5.20;4.70;;;;;;;9.94;52.42;95001.75;4974284;28;20973;-82
2022/04/11 11:22:03;;;;;;;5.90;5.50;;;;;;;10.08;54.35;94999.78;4974573;28;20955;-82
2022/04/11 11:24:30;;;;;;;6.73;6.13;;;;;;;10.12;53.47;95007.31;4974680;28;20449;-82
2022/04/11 11:26:59;;;;;;;6.60;6.00;;;;;;;10.37;55.75;94998.28;4974432;28;20835;-82
2022/04/11 11:29:30;;;;;;;6.20;5.57;;;;;;;10.62;51.45;95010.19;5016385;28;20443;-82
2022/04/11 11:31:59;;;;;;;6.40;5.80;;;;;;;10.66;50.49;95006.38;5032895;28;20513;-82
2022/04/11 11:34:29;;;;;;;6.77;6.17;;;;;;;10.63;50.85;94996.13;5037562;28;20538;-82
2022/04/11 11:37:01;;;;;;;7.13;6.47;;;;;;;10.50;51.75;95006.81;5095051;28;20448;-82
2022/04/11 11:39:30;;;;;;;8.20;7.37;;;;;;;10.48;51.18;95006.13;5094827;28;20479;-81
2022/04/11 11:42:03;;;;;;;12.50;8.10;;;;;;;10.34;51.11;95001.16;5094879;28;20424;-82
2022/04/11 11:44:31;;;;;;;8.53;6.10;;;;;;;10.19;51.34;95003.22;5094732;28;20443;-82